createdAt,value
2022-08-28T00:01:46.972Z,9.55
2022-08-28T00:04:15.228Z,10.88
2022-08-28T00:06:44.656Z,10.23
2022-08-28T00:09:13.166Z,10.75
2022-08-28T00:11:41.268Z,7.80
2022-08-28T00:14:11.386Z,10.93
2022-08-28T00:16:39.637Z,11.00
2022-08-28T00:19:07.716Z,10.43
2022-08-28T00:21:37.113Z,10.70
2022-08-28T00:27:00.905Z,10.88
2022-08-28T00:29:31.236Z,10.63
2022-08-28T00:31:59.680Z,10.98
2022-08-28T00:34:33.009Z,11.43
2022-08-28T00:37:02.013Z,12.05
2022-08-28T00:39:32.189Z,12.15
2022-08-28T00:42:00.624Z,12.55
2022-08-28T00:44:29.831Z,11.50
2022-08-28T00:46:59.913Z,11.65
2022-08-28T00:49:31.221Z,11.18
2022-08-28T00:52:09.067Z,11.27
2022-08-28T00:54:56.832Z,12.02
2022-08-28T00:57:30.795Z,11.80
2022-08-28T00:59:59.008Z,12.40
2022-08-28T01:02:27.704Z,12.48
2022-08-28T01:04:56.696Z,13.70
2022-08-28T01:07:25.369Z,13.30
2022-08-28T01:09:56.668Z,14.03
2022-08-28T01:12:29.512Z,13.75
2022-08-28T01:15:09.289Z,14.70
2022-08-28T01:17:40.112Z,13.55
2022-08-28T01:20:14.888Z,14.32
2022-08-28T01:22:49.091Z,13.82
2022-08-28T01:25:21.885Z,15.00
2022-08-28T01:27:51.629Z,14.60
2022-08-28T01:30:24.161Z,14.57
2022-08-28T01:32:55.095Z,15.40
2022-08-28T01:35:27.164Z,15.73
2022-08-28T01:37:56.837Z,14.32
2022-08-28T01:40:29.366Z,14.68
2022-08-28T01:42:57.532Z,14.98
2022-08-28T01:45:26.231Z,15.23
2022-08-28T01:47:56.805Z,14.75
2022-08-28T01:50:25.149Z,15.10
2022-08-28T01:52:53.926Z,15.82
2022-08-28T01:55:22.055Z,15.57
2022-08-28T01:57:54.537Z,17.40
2022-08-28T02:00:26.875Z,17.95
2022-08-28T02:02:58.741Z,16.67
2022-08-28T02:05:30.435Z,16.58
2022-08-28T02:07:59.271Z,18.13
2022-08-28T02:10:29.204Z,16.65
2022-08-28T02:12:59.459Z,18.20
2022-08-28T02:15:29.977Z,17.27
2022-08-28T02:17:59.745Z,16.88
2022-08-28T02:20:29.036Z,17.88
2022-08-28T02:22:58.932Z,14.52
2022-08-28T02:25:28.220Z,16.42
2022-08-28T02:27:56.645Z,16.20
2022-08-28T02:30:26.240Z,16.58
2022-08-28T02:32:54.736Z,16.75
2022-08-28T02:35:24.189Z,15.20
2022-08-28T02:40:24.744Z,14.00
2022-08-28T02:42:53.109Z,14.75
2022-08-28T02:45:21.904Z,14.57
2022-08-28T02:47:53.731Z,15.80
2022-08-28T02:50:22.304Z,13.38
2022-08-28T02:52:51.639Z,14.03
2022-08-28T02:55:21.141Z,13.73
2022-08-28T03:00:21.363Z,14.00
2022-08-28T03:02:51.296Z,13.95
2022-08-28T03:05:22.675Z,14.80
2022-08-28T03:07:53.196Z,13.50
2022-08-28T03:10:22.613Z,14.27
2022-08-28T03:15:19.071Z,13.82
2022-08-28T03:17:47.973Z,13.60
2022-08-28T03:20:19.407Z,13.93
2022-08-28T03:23:05.200Z,13.75
2022-08-28T03:25:33.440Z,14.00
2022-08-28T03:28:01.513Z,13.93
2022-08-28T03:30:30.110Z,12.38
2022-08-28T03:32:58.163Z,14.03
2022-08-28T03:35:27.611Z,13.45
2022-08-28T03:40:23.652Z,14.00
2022-08-28T03:42:53.268Z,12.75
2022-08-28T03:45:21.758Z,13.60
2022-08-28T03:47:50.862Z,14.27
2022-08-28T03:50:19.684Z,13.88
2022-08-28T03:52:49.650Z,13.43
2022-08-28T03:55:19.665Z,12.48
2022-08-28T03:57:47.942Z,13.45
2022-08-28T04:00:17.044Z,13.85
2022-08-28T04:02:46.187Z,14.27
2022-08-28T04:05:14.609Z,13.88
2022-08-28T04:07:42.653Z,14.20
2022-08-28T04:10:12.975Z,13.98
2022-08-28T04:12:41.032Z,14.25
2022-08-28T04:15:10.841Z,13.73
2022-08-28T04:17:41.046Z,14.30
2022-08-28T04:20:11.191Z,14.52
2022-08-28T04:22:39.771Z,15.63
2022-08-28T04:25:08.934Z,13.50
2022-08-28T04:27:40.225Z,12.90
2022-08-28T04:30:10.159Z,14.65
2022-08-28T04:32:39.602Z,15.00
2022-08-28T04:35:12.811Z,14.85
2022-08-28T04:37:41.539Z,14.82
2022-08-28T04:40:12.945Z,14.30
2022-08-28T04:42:44.920Z,14.50
2022-08-28T04:45:13.556Z,15.32
2022-08-28T04:47:41.833Z,15.48
2022-08-28T04:50:11.892Z,15.02
2022-08-28T04:52:39.981Z,15.20
2022-08-28T04:55:09.029Z,15.23
2022-08-28T04:57:37.301Z,16.00
2022-08-28T05:00:09.453Z,14.85
2022-08-28T05:02:38.605Z,14.73
2022-08-28T05:05:07.220Z,14.50
2022-08-28T05:07:35.769Z,16.17
2022-08-28T05:10:04.027Z,14.43
2022-08-28T05:12:32.556Z,15.00
2022-08-28T05:15:00.620Z,14.32
2022-08-28T05:17:32.173Z,14.35
2022-08-28T05:20:00.332Z,14.57
2022-08-28T05:22:29.470Z,14.60
2022-08-28T05:24:57.512Z,13.88
2022-08-28T05:27:25.687Z,14.32
2022-08-28T05:29:55.489Z,15.70
2022-08-28T05:32:26.663Z,15.00
2022-08-28T05:34:56.097Z,14.88
2022-08-28T05:39:52.103Z,15.82
2022-08-28T05:42:20.204Z,16.55
2022-08-28T05:44:48.276Z,17.60
2022-08-28T05:47:22.724Z,16.13
2022-08-28T05:49:50.834Z,17.80
2022-08-28T05:52:21.803Z,16.80
2022-08-28T05:57:17.785Z,16.23
2022-08-28T05:59:46.396Z,17.10
2022-08-28T06:02:14.551Z,17.60
2022-08-28T06:04:42.672Z,16.38
2022-08-28T06:07:12.125Z,15.45
2022-08-28T06:12:10.068Z,16.88
2022-08-28T06:14:40.251Z,16.95
2022-08-28T06:17:09.081Z,17.73
2022-08-28T06:19:41.307Z,18.83
2022-08-28T06:22:12.084Z,18.10
2022-08-28T06:24:41.805Z,17.50
2022-08-28T06:27:09.864Z,18.40
2022-08-28T06:29:37.979Z,17.88
2022-08-28T06:32:06.361Z,18.85
2022-08-28T06:34:34.486Z,19.17
2022-08-28T06:37:02.523Z,19.60
2022-08-28T06:39:30.676Z,18.98
2022-08-28T06:42:00.101Z,16.88
2022-08-28T06:44:32.178Z,17.45
2022-08-28T06:47:02.032Z,17.30
2022-08-28T06:49:30.056Z,18.05
2022-08-28T06:51:58.124Z,17.05
2022-08-28T06:54:26.232Z,17.15
2022-08-28T06:56:54.376Z,17.75
2022-08-28T06:59:23.876Z,17.08
2022-08-28T07:04:21.265Z,15.88
2022-08-28T07:06:54.836Z,16.92
2022-08-28T07:09:24.232Z,15.85
2022-08-28T07:11:52.515Z,16.95
2022-08-28T07:14:20.562Z,16.85
2022-08-28T07:16:50.036Z,17.63
2022-08-28T07:19:19.813Z,17.98
2022-08-28T07:21:48.111Z,17.40
2022-08-28T07:24:17.687Z,16.85
2022-08-28T07:26:47.199Z,18.98
2022-08-28T07:31:46.485Z,16.65
2022-08-28T07:34:17.283Z,18.90
2022-08-28T07:36:45.689Z,19.58
2022-08-28T07:39:15.537Z,18.33
2022-08-28T07:41:44.467Z,17.42
2022-08-28T07:44:32.300Z,17.20
2022-08-28T07:47:03.964Z,16.27
2022-08-28T07:49:34.613Z,17.10
2022-08-28T07:52:03.628Z,17.02
2022-08-28T07:54:31.751Z,16.30
2022-08-28T07:57:00.028Z,15.30
2022-08-28T07:59:34.182Z,16.88
2022-08-28T08:02:07.025Z,16.00
2022-08-28T08:04:36.470Z,15.68
2022-08-28T08:09:37.361Z,14.93
2022-08-28T08:12:06.382Z,17.33
2022-08-28T08:14:34.500Z,16.75
2022-08-28T08:17:03.324Z,17.45
2022-08-28T08:19:37.115Z,16.98
2022-08-28T08:22:05.171Z,15.77
2022-08-28T08:24:33.915Z,15.23
2022-08-28T08:27:03.609Z,14.73
2022-08-28T08:29:34.075Z,14.18
2022-08-28T08:32:05.759Z,15.48
2022-08-28T08:34:38.977Z,16.02
2022-08-28T08:37:07.164Z,14.48
2022-08-28T08:39:36.219Z,15.18
2022-08-28T08:42:07.930Z,15.35
2022-08-28T08:44:40.791Z,14.50
2022-08-28T08:47:15.325Z,14.07
2022-08-28T08:49:53.683Z,13.93
2022-08-28T08:52:35.883Z,13.07
2022-08-28T08:55:15.884Z,13.82
2022-08-28T08:57:46.203Z,13.60
2022-08-28T09:00:18.859Z,13.18
2022-08-28T09:05:23.744Z,13.02
2022-08-28T09:07:57.713Z,11.75
2022-08-28T09:10:34.768Z,13.35
2022-08-28T09:13:12.672Z,12.55
2022-08-28T09:15:48.707Z,11.70
2022-08-28T09:18:22.335Z,11.73
2022-08-28T09:20:53.495Z,12.07
2022-08-28T09:23:23.783Z,11.65
2022-08-28T09:25:59.779Z,10.38
2022-08-28T09:28:32.421Z,11.75
2022-08-28T09:31:04.832Z,11.82
2022-08-28T09:33:41.741Z,11.50
2022-08-28T09:36:31.465Z,11.38
2022-08-28T09:39:13.030Z,11.63
2022-08-28T09:42:07.285Z,11.20
2022-08-28T09:44:47.277Z,11.05
2022-08-28T09:47:46.606Z,10.05
2022-08-28T09:50:22.964Z,11.27
2022-08-28T09:52:54.409Z,10.07
2022-08-28T09:55:31.850Z,11.10
2022-08-28T09:58:00.854Z,9.57
2022-08-28T10:00:31.761Z,10.05
2022-08-28T10:03:08.447Z,9.00
2022-08-28T10:05:43.137Z,10.18
2022-08-28T10:08:31.116Z,9.50
2022-08-28T10:11:03.737Z,9.80
2022-08-28T10:13:36.807Z,9.60
2022-08-28T10:16:20.781Z,9.88
2022-08-28T10:18:56.981Z,10.55
2022-08-28T10:21:31.516Z,9.65
2022-08-28T10:24:27.073Z,9.65
2022-08-28T10:27:05.558Z,8.60
2022-08-28T10:29:45.483Z,8.02
2022-08-28T10:32:28.941Z,8.25
2022-08-28T10:35:06.365Z,8.60
2022-08-28T10:37:47.510Z,8.82
2022-08-28T10:40:19.933Z,6.88
2022-08-28T10:43:02.004Z,6.20
2022-08-28T10:45:32.999Z,6.78
2022-08-28T10:48:07.057Z,6.78
2022-08-28T10:50:43.169Z,6.65
2022-08-28T10:53:16.615Z,6.43
2022-08-28T10:55:54.806Z,6.65
2022-08-28T11:00:58.046Z,6.75
2022-08-28T11:03:35.731Z,7.13
2022-08-28T11:06:11.247Z,6.38
2022-08-28T11:08:40.594Z,7.13
2022-08-28T11:13:47.067Z,6.22
2022-08-28T11:16:21.686Z,6.55
2022-08-28T11:19:18.564Z,6.43
2022-08-28T11:21:50.489Z,5.18
2022-08-28T11:24:32.265Z,5.30
2022-08-28T11:27:16.777Z,5.85
2022-08-28T11:30:01.419Z,6.13
2022-08-28T11:32:41.526Z,5.95
2022-08-28T11:35:41.449Z,6.43
2022-08-28T11:38:10.176Z,7.35
2022-08-28T11:40:57.159Z,7.40
2022-08-28T11:43:40.413Z,7.15
2022-08-28T11:46:28.026Z,7.20
2022-08-28T11:48:58.394Z,7.97
2022-08-28T11:51:41.032Z,8.40
2022-08-28T11:54:21.596Z,8.90
2022-08-28T11:57:01.781Z,8.90
2022-08-28T11:59:54.015Z,7.43
2022-08-28T12:02:59.913Z,7.80
2022-08-28T12:05:45.203Z,8.38
2022-08-28T12:08:34.349Z,7.65
2022-08-28T12:11:02.697Z,7.47
2022-08-28T12:13:52.151Z,7.20
2022-08-28T12:16:22.349Z,7.50
2022-08-28T12:19:02.039Z,7.18
2022-08-28T12:21:32.856Z,7.60
2022-08-28T12:24:09.961Z,7.50
2022-08-28T12:26:48.794Z,6.53
2022-08-28T12:29:29.909Z,6.55
2022-08-28T12:32:18.652Z,6.82
2022-08-28T12:34:50.968Z,6.25
2022-08-28T12:37:51.626Z,5.38
2022-08-28T12:40:24.716Z,4.43
2022-08-28T12:42:55.799Z,3.30
2022-08-28T12:45:30.712Z,3.35
2022-08-28T12:48:03.714Z,3.80
2022-08-28T12:50:37.259Z,3.40
2022-08-28T12:53:08.669Z,3.63
2022-08-28T12:55:39.470Z,4.03
2022-08-28T12:58:13.952Z,4.00
2022-08-28T13:00:53.110Z,3.78
2022-08-28T13:08:24.738Z,3.58
2022-08-28T13:10:53.075Z,3.83
2022-08-28T13:13:25.205Z,4.53
2022-08-28T13:15:56.302Z,4.10
2022-08-28T13:18:45.537Z,3.72
2022-08-28T13:24:28.837Z,4.00
2022-08-28T13:27:07.063Z,3.83
2022-08-28T13:29:35.729Z,3.85
2022-08-28T13:32:05.834Z,3.28
2022-08-28T13:34:36.907Z,4.00
2022-08-28T13:37:07.344Z,3.22
2022-08-28T13:39:46.538Z,3.50
2022-08-28T13:42:17.880Z,2.72
2022-08-28T13:44:50.429Z,2.75
2022-08-28T13:47:18.855Z,2.67
2022-08-28T13:49:48.570Z,2.70
2022-08-28T13:52:16.951Z,3.13
2022-08-28T13:54:45.303Z,3.13
2022-08-28T13:57:14.458Z,3.35
2022-08-28T13:59:42.626Z,3.13
2022-08-28T14:02:31.885Z,4.00
2022-08-28T14:05:01.775Z,4.43
2022-08-28T14:07:30.501Z,5.70
2022-08-28T14:10:00.302Z,5.40
2022-08-28T14:12:32.943Z,6.63
2022-08-28T14:15:02.544Z,7.10
2022-08-28T14:17:30.752Z,7.53
2022-08-28T14:20:00.225Z,7.47
2022-08-28T14:22:30.930Z,7.95
2022-08-28T14:25:00.495Z,8.05
2022-08-28T14:27:28.592Z,7.53
2022-08-28T14:29:56.627Z,8.85
2022-08-28T14:32:24.711Z,8.00
2022-08-28T14:34:53.340Z,8.80
2022-08-28T14:37:21.633Z,8.07
2022-08-28T14:39:51.069Z,7.28
2022-08-28T14:44:47.456Z,8.60
2022-08-28T14:47:15.550Z,8.10
2022-08-28T14:49:43.611Z,8.35
2022-08-28T14:52:12.088Z,8.77
2022-08-28T14:54:40.432Z,8.00
2022-08-28T14:57:11.823Z,8.52
2022-08-28T14:59:39.987Z,8.82
2022-08-28T15:02:08.725Z,8.10
2022-08-28T15:04:37.969Z,7.43
2022-08-28T15:07:10.462Z,8.75
2022-08-28T15:09:41.659Z,7.43
2022-08-28T15:12:11.286Z,7.15
2022-08-28T15:14:39.445Z,8.02
2022-08-28T15:17:08.736Z,7.60
2022-08-28T15:19:36.809Z,7.93
2022-08-28T15:22:05.203Z,7.78
2022-08-28T15:24:34.488Z,7.45
2022-08-28T15:29:32.398Z,7.53
2022-08-28T15:34:29.869Z,8.27
2022-08-28T15:36:59.078Z,7.93
2022-08-28T15:39:46.272Z,7.93
2022-08-28T15:42:15.439Z,7.93
2022-08-28T15:44:45.104Z,7.80
2022-08-28T15:47:14.765Z,8.68
2022-08-28T15:49:50.000Z,7.70
2022-08-28T15:52:21.689Z,8.75
2022-08-28T15:54:50.716Z,8.52
2022-08-28T15:57:19.623Z,9.88
2022-08-28T15:59:50.779Z,9.45
2022-08-28T16:02:19.937Z,9.70
2022-08-28T16:04:48.523Z,9.73
2022-08-28T16:07:16.783Z,10.00
2022-08-28T16:09:44.829Z,9.43
2022-08-28T16:12:12.894Z,10.32
2022-08-28T16:14:41.339Z,10.05
2022-08-28T16:17:11.456Z,8.77
2022-08-28T16:19:41.622Z,9.30
2022-08-28T16:22:11.167Z,9.85
2022-08-28T16:24:39.596Z,10.00
2022-08-28T16:27:13.122Z,10.75
2022-08-28T16:29:43.586Z,10.38
2022-08-28T16:32:13.646Z,10.85
2022-08-28T16:34:44.599Z,10.52
2022-08-28T16:37:13.181Z,10.68
2022-08-28T16:39:46.805Z,9.82
2022-08-28T16:42:15.477Z,10.45
2022-08-28T16:44:43.504Z,10.65
2022-08-28T16:47:13.139Z,10.77
2022-08-28T16:49:41.305Z,10.70
2022-08-28T16:52:09.440Z,11.40
2022-08-28T16:54:37.617Z,11.63
2022-08-28T16:57:14.132Z,11.32
2022-08-28T16:59:42.224Z,11.48
2022-08-28T17:02:10.322Z,11.00
2022-08-28T17:04:42.900Z,11.35
2022-08-28T17:09:38.796Z,11.98
2022-08-28T17:12:07.213Z,12.45
2022-08-28T17:14:35.481Z,11.63
2022-08-28T17:17:03.519Z,11.65
2022-08-28T17:19:31.896Z,11.55
2022-08-28T17:22:19.184Z,12.43
2022-08-28T17:24:48.182Z,12.13
2022-08-28T17:27:22.680Z,12.40
2022-08-28T17:29:51.656Z,12.13
2022-08-28T17:32:19.890Z,13.05
2022-08-28T17:34:48.070Z,13.57
2022-08-28T17:37:19.045Z,13.00
2022-08-28T17:39:47.254Z,14.13
2022-08-28T17:42:15.382Z,13.05
2022-08-28T17:44:43.544Z,12.75
2022-08-28T17:47:11.912Z,13.73
2022-08-28T17:49:40.694Z,14.73
2022-08-28T17:52:08.704Z,13.48
2022-08-28T17:54:38.124Z,13.10
2022-08-28T17:59:35.279Z,13.85
2022-08-28T18:02:03.411Z,14.52
2022-08-28T18:04:31.522Z,14.18
2022-08-28T18:06:59.608Z,14.10
2022-08-28T18:09:28.342Z,14.27
2022-08-28T18:11:58.086Z,14.13
2022-08-28T18:19:24.808Z,13.38
2022-08-28T18:21:52.933Z,14.68
2022-08-28T18:24:20.990Z,13.98
2022-08-28T18:26:49.230Z,16.05
2022-08-28T18:29:18.678Z,14.18
2022-08-28T18:34:15.007Z,14.63
2022-08-28T18:36:43.440Z,15.55
2022-08-28T18:39:11.514Z,14.88
2022-08-28T18:41:43.727Z,16.00
2022-08-28T18:44:14.307Z,15.20
2022-08-28T18:46:44.828Z,15.13
2022-08-28T18:49:13.608Z,15.20
2022-08-28T18:51:42.954Z,15.93
2022-08-28T18:54:12.205Z,14.07
2022-08-28T18:56:40.963Z,15.13
2022-08-28T18:59:09.741Z,15.00
2022-08-28T19:01:38.150Z,16.23
2022-08-28T19:04:08.059Z,15.70
2022-08-28T19:06:36.941Z,16.42
2022-08-28T19:09:06.367Z,16.15
2022-08-28T19:11:35.801Z,15.15
2022-08-28T19:16:33.380Z,15.93
2022-08-28T19:19:01.810Z,15.23
2022-08-28T19:21:31.453Z,17.57
2022-08-28T19:26:28.597Z,16.77
2022-08-28T19:28:57.227Z,16.27
2022-08-28T19:31:26.351Z,16.00
2022-08-28T19:33:55.358Z,15.88
2022-08-28T19:36:27.007Z,17.50
2022-08-28T19:38:56.704Z,17.48
2022-08-28T19:41:24.813Z,17.40
2022-08-28T19:43:52.909Z,17.50
2022-08-28T19:46:21.621Z,17.33
2022-08-28T19:48:50.271Z,17.15
2022-08-28T19:51:23.072Z,16.98
2022-08-28T19:53:56.708Z,17.50
2022-08-28T19:56:28.768Z,17.92
2022-08-28T19:58:59.100Z,16.65
2022-08-28T20:01:29.479Z,18.38
2022-08-28T20:03:58.363Z,16.92
2022-08-28T20:06:26.935Z,16.70
2022-08-28T20:08:55.272Z,15.60
2022-08-28T20:11:30.374Z,16.83
2022-08-28T20:14:04.102Z,16.30
2022-08-28T20:16:35.451Z,15.82
2022-08-28T20:19:04.809Z,16.05
2022-08-28T20:21:37.072Z,16.88
2022-08-28T20:24:07.247Z,17.15
2022-08-28T20:26:35.763Z,16.60
2022-08-28T20:29:06.118Z,15.88
2022-08-28T20:31:36.482Z,16.20
2022-08-28T20:34:05.867Z,16.27
2022-08-28T20:36:34.144Z,15.98
2022-08-28T20:39:07.015Z,15.48
2022-08-28T20:41:36.918Z,15.18
2022-08-28T20:44:07.688Z,16.42
2022-08-28T20:46:40.856Z,15.05
2022-08-28T20:49:09.861Z,15.07
2022-08-28T20:51:57.543Z,14.70
2022-08-28T20:54:29.977Z,16.08
2022-08-28T20:56:59.632Z,15.93
2022-08-28T20:59:34.484Z,15.65
2022-08-28T21:02:10.432Z,16.73
2022-08-28T21:04:39.095Z,16.73
2022-08-28T21:07:07.222Z,16.65
2022-08-28T21:10:04.072Z,18.25
2022-08-28T21:12:24.620Z,18.67
2022-08-28T21:14:54.443Z,19.30
2022-08-28T21:20:00.933Z,18.10
2022-08-28T21:22:30.160Z,18.27
2022-08-28T21:24:58.257Z,17.58
2022-08-28T21:27:26.788Z,20.90
2022-08-28T21:29:58.420Z,19.70
2022-08-28T21:32:27.126Z,20.70
2022-08-28T21:34:55.394Z,20.45
2022-08-28T21:37:24.140Z,20.25
2022-08-28T21:39:52.188Z,19.60
2022-08-28T21:42:22.066Z,20.50
2022-08-28T21:44:51.820Z,20.02
2022-08-28T21:47:22.962Z,20.05
2022-08-28T21:49:52.066Z,19.27
2022-08-28T21:52:20.588Z,20.35
2022-08-28T21:54:48.646Z,19.92
2022-08-28T21:57:17.733Z,20.05
2022-08-28T21:59:45.785Z,19.33
2022-08-28T22:02:13.924Z,19.80
2022-08-28T22:04:43.395Z,20.20
2022-08-28T22:09:40.080Z,20.63
2022-08-28T22:12:09.067Z,20.83
2022-08-28T22:14:37.663Z,20.83
2022-08-28T22:17:10.271Z,21.93
2022-08-28T22:19:40.117Z,20.98
2022-08-28T22:22:27.236Z,20.88
2022-08-28T22:24:55.303Z,22.38
2022-08-28T22:27:23.769Z,21.63
2022-08-28T22:29:51.915Z,22.38
2022-08-28T22:32:25.307Z,21.50
2022-08-28T22:34:54.033Z,21.80
2022-08-28T22:37:23.945Z,21.67
2022-08-28T22:39:52.269Z,21.15
2022-08-28T22:42:21.160Z,21.77
2022-08-28T22:44:49.193Z,22.35
2022-08-28T22:47:18.865Z,22.08
2022-08-28T22:49:47.158Z,21.25
2022-08-28T22:52:15.398Z,21.73
2022-08-28T22:54:44.837Z,21.60
2022-08-28T22:59:42.118Z,21.17
2022-08-28T23:04:38.687Z,21.25
2022-08-28T23:07:07.509Z,22.33
2022-08-28T23:09:36.406Z,21.70
2022-08-28T23:12:07.386Z,19.67
2022-08-28T23:14:35.619Z,21.10
2022-08-28T23:17:03.761Z,21.55
2022-08-28T23:19:32.443Z,20.00
2022-08-28T23:22:01.031Z,20.77
2022-08-28T23:24:30.048Z,19.67
2022-08-28T23:27:13.959Z,19.85
2022-08-28T23:29:53.438Z,19.80
2022-08-28T23:32:21.608Z,19.25
2022-08-28T23:34:49.765Z,20.17
2022-08-28T23:37:17.862Z,18.55
2022-08-28T23:39:46.176Z,19.77
2022-08-28T23:44:43.609Z,19.90
2022-08-28T23:47:15.004Z,18.77
2022-08-28T23:49:43.907Z,18.52
2022-08-28T23:52:12.176Z,20.05
2022-08-28T23:54:40.351Z,18.63
2022-08-28T23:57:09.354Z,17.80
2022-08-28T23:59:39.221Z,18.95
